sensor_id;sensor_type;location;lat;lon;timestamp;pressure;altitude;pressure_sealevel;temperature;humidity
24858;BME280;12935;50.782;6.074;2023-10-09T00:00:57;100034.94;;;18.39;100.00
24858;BME280;12935;50.782;6.074;2023-10-09T00:03:39;100033.13;;;18.32;100.00
24858;BME280;12935;50.782;6.074;2023-10-09T00:06:06;100044.03;;;18.23;100.00
24858;BME280;12935;50.782;6.074;2023-10-09T00:08:32;100037.63;;;18.26;100.00
24858;BME280;12935;50.782;6.074;2023-10-09T00:11:01;100035.97;;;18.29;100.00
24858;BME280;12935;50.782;6.074;2023-10-09T00:13:40;100033.91;;;18.33;100.00
24858;BME280;12935;50.782;6.074;2023-10-09T00:16:15;100033.06;;;18.36;100.00
24858;BME280;12935;50.782;6.074;2023-10-09T00:18:49;100031.16;;;18.33;100.00
24858;BME280;12935;50.782;6.074;2023-10-09T00:21:15;100030.72;;;18.34;100.00
24858;BME280;12935;50.782;6.074;2023-10-09T00:23:41;100030.44;;;18.29;100.00
24858;BME280;12935;50.782;6.074;2023-10-09T00:26:09;100034.09;;;18.26;100.00
24858;BME280;12935;50.782;6.074;2023-10-09T00:28:41;100031.22;;;18.29;100.00
24858;BME280;12935;50.782;6.074;2023-10-09T00:31:11;100025.59;;;18.33;100.00
24858;BME280;12935;50.782;6.074;2023-10-09T00:33:41;100019.66;;;18.34;100.00
24858;BME280;12935;50.782;6.074;2023-10-09T00:36:07;100018.44;;;18.35;100.00
24858;BME280;12935;50.782;6.074;2023-10-09T00:38:37;100026.56;;;18.26;100.00
24858;BME280;12935;50.782;6.074;2023-10-09T00:41:10;100018.59;;;18.28;100.00
24858;BME280;12935;50.782;6.074;2023-10-09T00:43:37;100010.13;;;18.35;100.00
24858;BME280;12935;50.782;6.074;2023-10-09T00:46:03;100012.56;;;18.33;100.00
24858;BME280;12935;50.782;6.074;2023-10-09T00:48:33;100008.94;;;18.36;100.00
24858;BME280;12935;50.782;6.074;2023-10-09T00:51:04;100002.19;;;18.37;100.00
24858;BME280;12935;50.782;6.074;2023-10-09T00:53:45;100008.41;;;18.41;100.00
24858;BME280;12935;50.782;6.074;2023-10-09T00:56:17;99998.97;;;18.39;100.00
24858;BME280;12935;50.782;6.074;2023-10-09T00:58:53;99998.97;;;18.39;100.00
24858;BME280;12935;50.782;6.074;2023-10-09T01:01:26;99996.88;;;18.43;100.00
24858;BME280;12935;50.782;6.074;2023-10-09T01:03:59;99997.22;;;18.45;100.00
24858;BME280;12935;50.782;6.074;2023-10-09T01:06:25;99994.81;;;18.47;100.00
24858;BME280;12935;50.782;6.074;2023-10-09T01:08:54;99981.50;;;18.42;100.00
24858;BME280;12935;50.782;6.074;2023-10-09T01:11:34;99984.09;;;18.49;100.00
24858;BME280;12935;50.782;6.074;2023-10-09T01:14:03;99982.53;;;18.48;100.00
24858;BME280;12935;50.782;6.074;2023-10-09T01:16:38;99979.97;;;18.41;100.00
24858;BME280;12935;50.782;6.074;2023-10-09T01:19:06;99977.06;;;18.44;100.00
24858;BME280;12935;50.782;6.074;2023-10-09T01:21:38;99981.41;;;18.45;100.00
24858;BME280;12935;50.782;6.074;2023-10-09T01:24:05;99969.66;;;18.41;100.00
24858;BME280;12935;50.782;6.074;2023-10-09T01:26:36;99976.50;;;18.37;100.00
24858;BME280;12935;50.782;6.074;2023-10-09T01:29:08;99969.31;;;18.39;100.00
24858;BME280;12935;50.782;6.074;2023-10-09T01:31:40;99976.66;;;18.46;100.00
24858;BME280;12935;50.782;6.074;2023-10-09T01:34:29;99977.19;;;18.41;100.00
24858;BME280;12935;50.782;6.074;2023-10-09T01:37:14;99979.06;;;18.44;100.00
24858;BME280;12935;50.782;6.074;2023-10-09T01:39:58;99977.63;;;18.39;100.00
24858;BME280;12935;50.782;6.074;2023-10-09T01:42:24;99978.72;;;18.42;100.00
24858;BME280;12935;50.782;6.074;2023-10-09T01:44:55;99970.41;;;18.42;100.00
24858;BME280;12935;50.782;6.074;2023-10-09T01:47:23;99971.31;;;18.39;100.00
24858;BME280;12935;50.782;6.074;2023-10-09T01:49:51;99973.19;;;18.42;100.00
24858;BME280;12935;50.782;6.074;2023-10-09T01:52:18;99974.75;;;18.43;100.00
24858;BME280;12935;50.782;6.074;2023-10-09T01:54:44;99969.56;;;18.45;100.00
24858;BME280;12935;50.782;6.074;2023-10-09T01:57:15;99963.50;;;18.50;100.00
24858;BME280;12935;50.782;6.074;2023-10-09T01:59:47;99957.97;;;18.50;100.00
24858;BME280;12935;50.782;6.074;2023-10-09T02:02:18;99961.06;;;18.52;100.00
24858;BME280;12935;50.782;6.074;2023-10-09T02:05:12;99974.13;;;18.51;100.00
24858;BME280;12935;50.782;6.074;2023-10-09T02:07:41;99978.19;;;18.47;100.00
24858;BME280;12935;50.782;6.074;2023-10-09T02:10:10;99971.97;;;18.43;100.00
24858;BME280;12935;50.782;6.074;2023-10-09T02:12:49;99980.28;;;18.43;100.00
24858;BME280;12935;50.782;6.074;2023-10-09T02:15:36;99981.59;;;18.38;100.00
24858;BME280;12935;50.782;6.074;2023-10-09T02:18:12;99978.66;;;18.29;100.00
24858;BME280;12935;50.782;6.074;2023-10-09T02:20:51;99973.38;;;18.35;100.00
24858;BME280;12935;50.782;6.074;2023-10-09T02:23:40;99967.59;;;18.29;100.00
24858;BME280;12935;50.782;6.074;2023-10-09T02:29:36;99967.59;;;18.29;100.00
24858;BME280;12935;50.782;6.074;2023-10-09T02:32:03;99965.53;;;18.33;100.00
24858;BME280;12935;50.782;6.074;2023-10-09T02:34:39;99962.41;;;18.31;100.00
24858;BME280;12935;50.782;6.074;2023-10-09T02:37:04;99964.81;;;18.29;100.00
24858;BME280;12935;50.782;6.074;2023-10-09T02:39:38;99966.94;;;18.25;100.00
24858;BME280;12935;50.782;6.074;2023-10-09T02:42:13;99973.31;;;18.22;100.00
24858;BME280;12935;50.782;6.074;2023-10-09T02:44:39;99979.38;;;18.17;100.00
24858;BME280;12935;50.782;6.074;2023-10-09T02:47:11;99979.56;;;18.10;100.00
24858;BME280;12935;50.782;6.074;2023-10-09T02:49:43;99975.13;;;18.12;100.00
24858;BME280;12935;50.782;6.074;2023-10-09T02:52:09;99972.00;;;18.10;100.00
24858;BME280;12935;50.782;6.074;2023-10-09T02:54:45;99981.88;;;18.11;100.00
24858;BME280;12935;50.782;6.074;2023-10-09T02:57:12;99977.91;;;18.12;100.00
24858;BME280;12935;50.782;6.074;2023-10-09T02:59:47;99971.34;;;18.06;100.00
24858;BME280;12935;50.782;6.074;2023-10-09T03:02:13;99965.91;;;18.03;100.00
24858;BME280;12935;50.782;6.074;2023-10-09T03:04:38;99970.56;;;18.06;100.00
24858;BME280;12935;50.782;6.074;2023-10-09T03:07:04;99968.16;;;18.08;100.00
24858;BME280;12935;50.782;6.074;2023-10-09T03:09:29;99958.66;;;18.09;100.00
24858;BME280;12935;50.782;6.074;2023-10-09T03:12:01;99964.84;;;18.13;100.00
24858;BME280;12935;50.782;6.074;2023-10-09T03:14:27;99963.47;;;18.05;100.00
24858;BME280;12935;50.782;6.074;2023-10-09T03:16:57;99964.84;;;17.97;100.00
24858;BME280;12935;50.782;6.074;2023-10-09T03:19:24;99964.78;;;18.00;100.00
24858;BME280;12935;50.782;6.074;2023-10-09T03:21:50;99967.47;;;18.04;100.00
24858;BME280;12935;50.782;6.074;2023-10-09T03:24:15;99966.59;;;18.07;100.00
24858;BME280;12935;50.782;6.074;2023-10-09T03:26:41;99965.81;;;18.06;100.00
24858;BME280;12935;50.782;6.074;2023-10-09T03:29:06;99963.41;;;18.08;100.00
24858;BME280;12935;50.782;6.074;2023-10-09T03:31:35;99963.06;;;18.06;100.00
24858;BME280;12935;50.782;6.074;2023-10-09T03:34:02;99959.06;;;18.07;100.00
24858;BME280;12935;50.782;6.074;2023-10-09T03:36:28;99959.25;;;18.00;100.00
24858;BME280;12935;50.782;6.074;2023-10-09T03:38:54;99955.34;;;17.98;100.00
24858;BME280;12935;50.782;6.074;2023-10-09T03:41:21;99955.13;;;17.92;100.00
24858;BME280;12935;50.782;6.074;2023-10-09T03:43:46;99968.41;;;17.97;100.00
24858;BME280;12935;50.782;6.074;2023-10-09T03:46:12;99964.34;;;18.02;100.00
24858;BME280;12935;50.782;6.074;2023-10-09T03:48:49;99953.63;;;17.87;100.00
24858;BME280;12935;50.782;6.074;2023-10-09T03:51:15;99956.13;;;17.82;100.00
24858;BME280;12935;50.782;6.074;2023-10-09T03:53:47;99954.91;;;17.83;100.00
24858;BME280;12935;50.782;6.074;2023-10-09T03:56:13;99954.41;;;17.88;100.00
24858;BME280;12935;50.782;6.074;2023-10-09T03:58:39;99952.06;;;17.86;100.00
24858;BME280;12935;50.782;6.074;2023-10-09T04:01:09;99947.41;;;17.83;100.00
24858;BME280;12935;50.782;6.074;2023-10-09T04:03:42;99948.53;;;17.86;100.00
24858;BME280;12935;50.782;6.074;2023-10-09T04:06:09;99942.56;;;17.87;100.00
24858;BME280;12935;50.782;6.074;2023-10-09T04:08:36;99952.16;;;17.83;100.00
24858;BME280;12935;50.782;6.074;2023-10-09T04:11:05;99963.47;;;17.72;100.00
24858;BME280;12935;50.782;6.074;2023-10-09T04:13:41;99960.88;;;17.65;100.00
24858;BME280;12935;50.782;6.074;2023-10-09T04:16:07;99955.19;;;17.72;100.00
24858;BME280;12935;50.782;6.074;2023-10-09T04:18:51;99957.09;;;17.75;100.00
24858;BME280;12935;50.782;6.074;2023-10-09T04:21:17;99951.22;;;17.73;100.00
24858;BME280;12935;50.782;6.074;2023-10-09T04:23:55;99959.66;;;17.66;100.00
24858;BME280;12935;50.782;6.074;2023-10-09T04:29:13;99951.28;;;17.70;100.00
24858;BME280;12935;50.782;6.074;2023-10-09T04:32:04;99954.44;;;17.52;100.00
24858;BME280;12935;50.782;6.074;2023-10-09T04:34:33;99960.13;;;17.45;100.00
24858;BME280;12935;50.782;6.074;2023-10-09T04:37:03;99972.91;;;17.55;100.00
24858;BME280;12935;50.782;6.074;2023-10-09T04:39:49;99976.31;;;17.63;100.00
24858;BME280;12935;50.782;6.074;2023-10-09T04:42:34;99975.97;;;17.61;100.00
24858;BME280;12935;50.782;6.074;2023-10-09T04:45:06;99977.59;;;17.58;100.00
24858;BME280;12935;50.782;6.074;2023-10-09T04:47:34;99988.22;;;17.60;100.00
24858;BME280;12935;50.782;6.074;2023-10-09T04:50:10;99976.03;;;17.57;100.00
24858;BME280;12935;50.782;6.074;2023-10-09T04:52:54;99962.28;;;17.53;100.00
24858;BME280;12935;50.782;6.074;2023-10-09T04:55:20;99964.47;;;17.46;100.00
24858;BME280;12935;50.782;6.074;2023-10-09T04:57:50;99957.78;;;17.43;100.00
24858;BME280;12935;50.782;6.074;2023-10-09T05:00:26;99960.38;;;17.50;100.00
24858;BME280;12935;50.782;6.074;2023-10-09T05:03:02;99964.91;;;17.61;100.00
24858;BME280;12935;50.782;6.074;2023-10-09T05:05:51;99957.41;;;17.61;100.00
24858;BME280;12935;50.782;6.074;2023-10-09T05:08:24;99956.19;;;17.62;100.00
24858;BME280;12935;50.782;6.074;2023-10-09T05:11:00;99958.25;;;17.58;100.00
24858;BME280;12935;50.782;6.074;2023-10-09T05:13:36;99947.53;;;17.44;100.00
24858;BME280;12935;50.782;6.074;2023-10-09T05:16:15;99941.38;;;17.36;100.00
24858;BME280;12935;50.782;6.074;2023-10-09T05:18:40;99934.91;;;17.43;100.00
24858;BME280;12935;50.782;6.074;2023-10-09T05:21:06;99933.19;;;17.49;100.00
24858;BME280;12935;50.782;6.074;2023-10-09T05:23:38;99930.69;;;17.54;100.00
24858;BME280;12935;50.782;6.074;2023-10-09T05:26:14;99928.78;;;17.51;100.00
24858;BME280;12935;50.782;6.074;2023-10-09T05:29:23;99929.47;;;17.39;100.00
24858;BME280;12935;50.782;6.074;2023-10-09T05:31:57;99927.06;;;17.41;100.00
24858;BME280;12935;50.782;6.074;2023-10-09T05:34:53;99932.22;;;17.39;100.00
24858;BME280;12935;50.782;6.074;2023-10-09T05:37:33;99931.03;;;17.40;100.00
24858;BME280;12935;50.782;6.074;2023-10-09T05:40:03;99926.28;;;17.41;100.00
24858;BME280;12935;50.782;6.074;2023-10-09T05:42:35;99937.47;;;17.34;100.00
24858;BME280;12935;50.782;6.074;2023-10-09T05:45:16;99935.50;;;17.34;100.00
24858;BME280;12935;50.782;6.074;2023-10-09T05:47:49;99939.31;;;17.40;100.00
24858;BME280;12935;50.782;6.074;2023-10-09T05:50:33;99943.63;;;17.41;100.00
24858;BME280;12935;50.782;6.074;2023-10-09T05:53:24;99949.72;;;17.33;100.00
24858;BME280;12935;50.782;6.074;2023-10-09T05:56:08;99939.22;;;17.28;100.00
24858;BME280;12935;50.782;6.074;2023-10-09T05:58:52;99946.00;;;17.23;100.00
24858;BME280;12935;50.782;6.074;2023-10-09T06:01:37;99937.28;;;17.25;100.00
24858;BME280;12935;50.782;6.074;2023-10-09T06:04:20;99925.41;;;17.28;100.00
24858;BME280;12935;50.782;6.074;2023-10-09T06:06:46;99928.41;;;17.33;100.00
24858;BME280;12935;50.782;6.074;2023-10-09T06:09:12;99937.41;;;17.37;100.00
24858;BME280;12935;50.782;6.074;2023-10-09T06:11:38;99944.19;;;17.33;100.00
24858;BME280;12935;50.782;6.074;2023-10-09T06:14:04;99946.19;;;17.32;100.00
24858;BME280;12935;50.782;6.074;2023-10-09T06:16:39;99952.13;;;17.14;100.00
24858;BME280;12935;50.782;6.074;2023-10-09T06:19:25;99954.44;;;17.16;100.00
24858;BME280;12935;50.782;6.074;2023-10-09T06:21:58;99946.84;;;17.20;100.00
24858;BME280;12935;50.782;6.074;2023-10-09T06:24:43;99959.53;;;17.17;100.00
24858;BME280;12935;50.782;6.074;2023-10-09T06:27:23;99955.41;;;17.26;100.00
24858;BME280;12935;50.782;6.074;2023-10-09T06:29:58;99947.13;;;17.26;100.00
24858;BME280;12935;50.782;6.074;2023-10-09T06:32:43;99942.81;;;17.25;100.00
24858;BME280;12935;50.782;6.074;2023-10-09T06:35:33;99945.88;;;17.30;100.00
24858;BME280;12935;50.782;6.074;2023-10-09T06:38:00;99949.31;;;17.34;100.00
24858;BME280;12935;50.782;6.074;2023-10-09T06:40:26;99946.47;;;17.38;100.00
24858;BME280;12935;50.782;6.074;2023-10-09T06:43:14;99952.94;;;17.31;100.00
24858;BME280;12935;50.782;6.074;2023-10-09T06:45:45;99953.13;;;17.40;100.00
24858;BME280;12935;50.782;6.074;2023-10-09T06:48:12;99951.22;;;17.37;100.00
24858;BME280;12935;50.782;6.074;2023-10-09T06:50:57;99963.47;;;17.36;100.00
24858;BME280;12935;50.782;6.074;2023-10-09T06:53:29;99982.81;;;17.36;100.00
24858;BME280;12935;50.782;6.074;2023-10-09T06:56:14;99987.34;;;17.46;100.00
24858;BME280;12935;50.782;6.074;2023-10-09T06:59:14;99998.38;;;17.46;100.00
24858;BME280;12935;50.782;6.074;2023-10-09T07:01:53;99997.25;;;17.44;100.00
24858;BME280;12935;50.782;6.074;2023-10-09T07:04:37;99988.78;;;17.51;100.00
24858;BME280;12935;50.782;6.074;2023-10-09T07:07:03;100011.84;;;17.44;100.00
24858;BME280;12935;50.782;6.074;2023-10-09T07:09:46;99992.16;;;17.42;100.00
24858;BME280;12935;50.782;6.074;2023-10-09T07:12:33;99998.28;;;17.50;100.00
24858;BME280;12935;50.782;6.074;2023-10-09T07:15:00;100007.88;;;17.45;100.00
24858;BME280;12935;50.782;6.074;2023-10-09T07:17:50;100009.09;;;17.44;100.00
24858;BME280;12935;50.782;6.074;2023-10-09T07:20:17;100023.47;;;17.36;100.00
24858;BME280;12935;50.782;6.074;2023-10-09T07:23:02;100009.44;;;17.46;100.00
24858;BME280;12935;50.782;6.074;2023-10-09T07:25:41;100022.22;;;17.57;100.00
24858;BME280;12935;50.782;6.074;2023-10-09T07:28:10;100013.53;;;17.58;100.00
24858;BME280;12935;50.782;6.074;2023-10-09T07:31:02;100022.81;;;17.68;100.00
24858;BME280;12935;50.782;6.074;2023-10-09T07:33:28;100023.00;;;17.77;100.00
24858;BME280;12935;50.782;6.074;2023-10-09T07:36:26;100029.13;;;17.84;100.00
24858;BME280;12935;50.782;6.074;2023-10-09T07:39:03;100024.75;;;17.87;100.00
24858;BME280;12935;50.782;6.074;2023-10-09T07:41:38;100023.53;;;17.88;100.00
24858;BME280;12935;50.782;6.074;2023-10-09T07:44:09;100015.25;;;17.88;100.00
24858;BME280;12935;50.782;6.074;2023-10-09T07:46:44;100019.81;;;17.95;100.00
24858;BME280;12935;50.782;6.074;2023-10-09T07:49:17;100018.78;;;17.88;100.00
24858;BME280;12935;50.782;6.074;2023-10-09T07:51:50;100018.69;;;17.92;100.00
24858;BME280;12935;50.782;6.074;2023-10-09T07:54:18;100016.53;;;17.83;100.00
24858;BME280;12935;50.782;6.074;2023-10-09T07:56:57;100010.41;;;17.92;100.00
24858;BME280;12935;50.782;6.074;2023-10-09T07:59:37;100012.56;;;18.01;100.00
24858;BME280;12935;50.782;6.074;2023-10-09T08:02:07;100023.03;;;17.93;100.00
24858;BME280;12935;50.782;6.074;2023-10-09T08:04:39;100027.25;;;17.98;100.00
24858;BME280;12935;50.782;6.074;2023-10-09T08:07:13;100026.47;;;17.97;100.00
24858;BME280;12935;50.782;6.074;2023-10-09T08:09:54;100026.78;;;17.83;100.00
24858;BME280;12935;50.782;6.074;2023-10-09T08:12:38;100019.28;;;17.83;100.00
24858;BME280;12935;50.782;6.074;2023-10-09T08:15:09;100019.47;;;17.76;100.00
24858;BME280;12935;50.782;6.074;2023-10-09T08:17:48;100023.34;;;17.95;100.00
24858;BME280;12935;50.782;6.074;2023-10-09T08:20:21;100027.00;;;18.08;100.00
24858;BME280;12935;50.782;6.074;2023-10-09T08:22:51;100035.97;;;18.12;100.00
24858;BME280;12935;50.782;6.074;2023-10-09T08:25:18;100037.81;;;18.19;100.00
24858;BME280;12935;50.782;6.074;2023-10-09T08:27:54;100039.63;;;18.09;100.00
24858;BME280;12935;50.782;6.074;2023-10-09T08:30:20;100036.09;;;18.09;100.00
24858;BME280;12935;50.782;6.074;2023-10-09T08:32:52;100044.13;;;18.19;100.00
24858;BME280;12935;50.782;6.074;2023-10-09T08:35:28;100046.53;;;18.34;100.00
24858;BME280;12935;50.782;6.074;2023-10-09T08:38:03;100035.81;;;18.36;100.00
24858;BME280;12935;50.782;6.074;2023-10-09T08:40:40;100024.31;;;18.21;100.00
24858;BME280;12935;50.782;6.074;2023-10-09T08:45:37;100025.19;;;18.34;100.00
24858;BME280;12935;50.782;6.074;2023-10-09T08:48:05;100010.72;;;18.43;100.00
24858;BME280;12935;50.782;6.074;2023-10-09T08:50:32;100008.56;;;18.50;100.00
24858;BME280;12935;50.782;6.074;2023-10-09T08:53:00;100002.16;;;18.53;100.00
24858;BME280;12935;50.782;6.074;2023-10-09T08:55:25;100008.28;;;18.61;100.00
24858;BME280;12935;50.782;6.074;2023-10-09T08:57:51;100019.03;;;18.59;100.00
24858;BME280;12935;50.782;6.074;2023-10-09T09:00:18;100014.22;;;18.76;100.00
24858;BME280;12935;50.782;6.074;2023-10-09T09:02:50;100004.53;;;18.84;100.00
24858;BME280;12935;50.782;6.074;2023-10-09T09:05:19;100009.50;;;18.89;100.00
24858;BME280;12935;50.782;6.074;2023-10-09T09:07:45;99995.81;;;18.98;100.00
24858;BME280;12935;50.782;6.074;2023-10-09T09:10:10;99995.13;;;18.94;100.00
24858;BME280;12935;50.782;6.074;2023-10-09T09:12:49;99992.19;;;19.01;100.00
24858;BME280;12935;50.782;6.074;2023-10-09T09:15:27;100001.84;;;19.09;100.00
24858;BME280;12935;50.782;6.074;2023-10-09T09:18:03;100007.94;;;19.04;100.00
24858;BME280;12935;50.782;6.074;2023-10-09T09:20:31;100010.03;;;19.13;100.00
24858;BME280;12935;50.782;6.074;2023-10-09T09:23:02;100014.50;;;19.23;100.00
24858;BME280;12935;50.782;6.074;2023-10-09T09:25:43;100011.66;;;19.39;100.00
24858;BME280;12935;50.782;6.074;2023-10-09T09:28:24;100010.59;;;19.62;100.00
24858;BME280;12935;50.782;6.074;2023-10-09T09:30:52;100005.28;;;19.93;100.00
24858;BME280;12935;50.782;6.074;2023-10-09T09:33:27;100004.69;;;20.23;97.15
24858;BME280;12935;50.782;6.074;2023-10-09T09:36:12;99991.09;;;20.51;92.96
24858;BME280;12935;50.782;6.074;2023-10-09T09:38:38;100002.13;;;20.63;91.34
24858;BME280;12935;50.782;6.074;2023-10-09T09:41:18;99989.91;;;20.74;89.60
24858;BME280;12935;50.782;6.074;2023-10-09T09:43:57;99987.78;;;20.78;86.99
24858;BME280;12935;50.782;6.074;2023-10-09T09:46:31;99989.84;;;20.86;88.05
24858;BME280;12935;50.782;6.074;2023-10-09T09:49:02;99991.06;;;21.07;87.05
24858;BME280;12935;50.782;6.074;2023-10-09T09:51:32;99997.63;;;21.44;85.54
24858;BME280;12935;50.782;6.074;2023-10-09T09:53:58;99985.09;;;21.70;83.36
24858;BME280;12935;50.782;6.074;2023-10-09T09:56:28;99991.78;;;21.91;81.62
24858;BME280;12935;50.782;6.074;2023-10-09T09:58:57;99991.09;;;22.00;79.91
24858;BME280;12935;50.782;6.074;2023-10-09T10:01:29;99990.53;;;21.83;73.72
24858;BME280;12935;50.782;6.074;2023-10-09T10:04:07;99995.03;;;21.90;75.81
24858;BME280;12935;50.782;6.074;2023-10-09T10:06:40;100001.03;;;22.19;72.11
24858;BME280;12935;50.782;6.074;2023-10-09T10:09:08;99996.56;;;22.40;69.99
24858;BME280;12935;50.782;6.074;2023-10-09T10:11:43;99993.19;;;22.54;68.79
24858;BME280;12935;50.782;6.074;2023-10-09T10:14:17;99985.13;;;22.74;68.44
24858;BME280;12935;50.782;6.074;2023-10-09T10:17:04;99985.28;;;22.71;67.21
24858;BME280;12935;50.782;6.074;2023-10-09T10:20:01;99969.50;;;22.40;66.58
24858;BME280;12935;50.782;6.074;2023-10-09T10:22:40;99966.72;;;22.59;67.80
24858;BME280;12935;50.782;6.074;2023-10-09T10:25:32;99967.94;;;22.67;65.98
24858;BME280;12935;50.782;6.074;2023-10-09T10:30:45;99969.38;;;22.81;65.25
24858;BME280;12935;50.782;6.074;2023-10-09T10:33:10;99968.75;;;22.86;63.00
24858;BME280;12935;50.782;6.074;2023-10-09T10:35:41;99958.06;;;22.75;63.04
24858;BME280;12935;50.782;6.074;2023-10-09T10:38:31;99957.59;;;22.58;63.55
24858;BME280;12935;50.782;6.074;2023-10-09T10:41:11;99964.28;;;22.79;63.38
24858;BME280;12935;50.782;6.074;2023-10-09T10:43:37;99961.19;;;22.77;60.92
24858;BME280;12935;50.782;6.074;2023-10-09T10:46:23;99951.25;;;22.94;62.03
24858;BME280;12935;50.782;6.074;2023-10-09T10:48:54;99952.16;;;22.73;60.91
24858;BME280;12935;50.782;6.074;2023-10-09T10:51:38;99947.06;;;22.71;61.80
24858;BME280;12935;50.782;6.074;2023-10-09T10:54:05;99945.50;;;22.70;60.32
24858;BME280;12935;50.782;6.074;2023-10-09T10:56:49;99945.81;;;22.72;60.72
24858;BME280;12935;50.782;6.074;2023-10-09T10:59:15;99949.22;;;22.67;59.61
24858;BME280;12935;50.782;6.074;2023-10-09T11:01:48;99947.06;;;22.62;60.54
24858;BME280;12935;50.782;6.074;2023-10-09T11:04:39;99956.81;;;22.76;61.06
24858;BME280;12935;50.782;6.074;2023-10-09T11:07:07;99955.91;;;22.61;60.84
24858;BME280;12935;50.782;6.074;2023-10-09T11:09:57;99960.84;;;22.66;61.64
24858;BME280;12935;50.782;6.074;2023-10-09T11:15:34;99962.22;;;22.43;60.69
24858;BME280;12935;50.782;6.074;2023-10-09T11:18:13;99963.94;;;22.50;60.45
24858;BME280;12935;50.782;6.074;2023-10-09T11:20:55;99961.94;;;22.59;61.13
24858;BME280;12935;50.782;6.074;2023-10-09T11:23:28;99966.56;;;22.62;59.03
24858;BME280;12935;50.782;6.074;2023-10-09T11:26:01;99971.22;;;22.56;59.08
24858;BME280;12935;50.782;6.074;2023-10-09T11:32:06;99969.81;;;22.33;60.30
24858;BME280;12935;50.782;6.074;2023-10-09T11:34:34;99962.53;;;22.36;59.29
24858;BME280;12935;50.782;6.074;2023-10-09T11:37:02;99971.97;;;22.38;59.61
24858;BME280;12935;50.782;6.074;2023-10-09T11:39:31;99976.44;;;22.36;60.17
24858;BME280;12935;50.782;6.074;2023-10-09T11:42:05;99978.34;;;22.48;60.13
24858;BME280;12935;50.782;6.074;2023-10-09T11:44:44;99981.41;;;22.68;60.17
24858;BME280;12935;50.782;6.074;2023-10-09T11:47:11;99969.81;;;22.88;59.17
24858;BME280;12935;50.782;6.074;2023-10-09T11:49:52;99981.44;;;22.96;57.58
24858;BME280;12935;50.782;6.074;2023-10-09T11:52:54;99974.34;;;22.77;57.51
24858;BME280;12935;50.782;6.074;2023-10-09T11:55:22;99976.78;;;22.65;58.50
24858;BME280;12935;50.782;6.074;2023-10-09T11:57:50;99974.19;;;22.80;58.60
24858;BME280;12935;50.782;6.074;2023-10-09T12:00:16;99972.44;;;22.73;59.04
24858;BME280;12935;50.782;6.074;2023-10-09T13:20:37;99950.75;;;22.14;59.28
24858;BME280;12935;50.782;6.074;2023-10-09T13:23:02;99954.91;;;22.00;58.62
24858;BME280;12935;50.782;6.074;2023-10-09T13:25:27;99957.69;;;22.09;59.62
24858;BME280;12935;50.782;6.074;2023-10-09T13:28:07;99967.31;;;22.17;58.47
24858;BME280;12935;50.782;6.074;2023-10-09T13:30:32;99979.03;;;22.03;58.23
24858;BME280;12935;50.782;6.074;2023-10-09T13:33:04;99983.69;;;21.75;58.83
24858;BME280;12935;50.782;6.074;2023-10-09T13:35:30;99976.44;;;21.78;59.61
24858;BME280;12935;50.782;6.074;2023-10-09T13:38:05;99971.84;;;21.84;60.50
24858;BME280;12935;50.782;6.074;2023-10-09T13:43:02;99978.97;;;21.85;61.93
24858;BME280;12935;50.782;6.074;2023-10-09T13:45:28;99965.38;;;21.87;61.16
24858;BME280;12935;50.782;6.074;2023-10-09T13:47:56;99973.34;;;21.76;60.52
24858;BME280;12935;50.782;6.074;2023-10-09T13:50:26;99982.91;;;21.65;61.25
24858;BME280;12935;50.782;6.074;2023-10-09T13:52:58;99977.78;;;21.64;62.20
24858;BME280;12935;50.782;6.074;2023-10-09T13:57:59;99978.78;;;21.79;61.23
24858;BME280;12935;50.782;6.074;2023-10-09T14:00:25;99968.94;;;21.87;60.59
24858;BME280;12935;50.782;6.074;2023-10-09T14:03:07;99971.63;;;22.00;59.55
24858;BME280;12935;50.782;6.074;2023-10-09T14:05:39;99965.03;;;22.43;58.57
24858;BME280;12935;50.782;6.074;2023-10-09T14:08:18;99962.88;;;22.93;57.48
24858;BME280;12935;50.782;6.074;2023-10-09T14:10:44;99953.81;;;23.16;56.59
24858;BME280;12935;50.782;6.074;2023-10-09T14:13:16;99950.13;;;23.10;55.47
24858;BME280;12935;50.782;6.074;2023-10-09T14:15:42;99951.09;;;22.89;55.53
24858;BME280;12935;50.782;6.074;2023-10-09T14:18:08;99961.50;;;22.79;55.70
24858;BME280;12935;50.782;6.074;2023-10-09T14:20:37;99966.59;;;22.81;56.50
24858;BME280;12935;50.782;6.074;2023-10-09T14:23:03;99967.19;;;22.66;57.37
24858;BME280;12935;50.782;6.074;2023-10-09T14:25:35;99966.56;;;22.53;57.59
24858;BME280;12935;50.782;6.074;2023-10-09T14:28:08;99977.88;;;22.59;58.38
24858;BME280;12935;50.782;6.074;2023-10-09T14:30:38;99955.13;;;22.42;58.38
24858;BME280;12935;50.782;6.074;2023-10-09T14:33:12;99966.09;;;22.55;57.78
24858;BME280;12935;50.782;6.074;2023-10-09T14:35:40;99959.28;;;22.37;57.99
24858;BME280;12935;50.782;6.074;2023-10-09T14:38:06;99961.59;;;22.39;58.39
24858;BME280;12935;50.782;6.074;2023-10-09T14:40:45;99954.66;;;22.34;58.70
24858;BME280;12935;50.782;6.074;2023-10-09T14:43:11;99962.81;;;22.20;59.93
24858;BME280;12935;50.782;6.074;2023-10-09T14:45:46;99953.09;;;22.43;59.12
24858;BME280;12935;50.782;6.074;2023-10-09T14:48:15;99951.88;;;22.34;59.53
24858;BME280;12935;50.782;6.074;2023-10-09T14:50:47;99959.13;;;22.23;60.07
24858;BME280;12935;50.782;6.074;2023-10-09T14:53:13;99964.22;;;22.24;60.60
24858;BME280;12935;50.782;6.074;2023-10-09T14:55:40;99977.28;;;21.96;60.54
24858;BME280;12935;50.782;6.074;2023-10-09T14:58:06;99974.75;;;21.80;62.26
24858;BME280;12935;50.782;6.074;2023-10-09T15:00:32;99969.44;;;21.64;63.40
24858;BME280;12935;50.782;6.074;2023-10-09T15:02:59;99970.38;;;21.61;64.47